Time;durP1;ratioP1;P1;durP2;ratioP2;P2;SDS_P1;SDS_P2;PMS_P1;PMS_P2;Temp;Humidity;BMP_temperature;BMP_pressure;BME280_temperature;BME280_humidity;BME280_pressure;Samples;Min_cycle;Max_cycle;Signal;HPM_P1;HPM_P2
2021/12/22 00:01:15;;;;;;;28.55;15.63;;;;;;;;;;5022643;28;20502;-69
2021/12/22 00:03:45;;;;;;;28.85;14.70;;;;;;;;;;5012135;28;20498;-69
2021/12/22 00:06:14;;;;;;;30.50;16.17;;;;;;;;;;5009862;28;20104;-69
2021/12/22 00:08:40;;;;;;;24.45;13.35;;;;;;;;;;5015390;28;20435;-69
2021/12/22 00:11:06;;;;;;;33.88;15.55;;;;;;;;;;5023801;28;20127;-69
2021/12/22 00:13:32;;;;;;;26.80;15.00;;;;;;;;;;5022077;28;20406;-69
2021/12/22 00:15:58;;;;;;;28.98;15.18;;;;;;;;;;5017315;28;20058;-70
2021/12/22 00:18:24;;;;;;;26.83;15.65;;;;;;;;;;5026875;28;20116;-69
2021/12/22 00:20:50;;;;;;;27.48;13.77;;;;;;;;;;5017081;28;20112;-69
2021/12/22 00:23:16;;;;;;;34.42;14.88;;;;;;;;;;5020222;28;20057;-68
2021/12/22 00:25:41;;;;;;;28.55;15.05;;;;;;;;;;5024197;28;20033;-69
2021/12/22 00:28:08;;;;;;;26.70;14.23;;;;;;;;;;5014136;28;20496;-69
2021/12/22 00:30:35;;;;;;;27.38;13.93;;;;;;;;;;5027797;28;20096;-69
2021/12/22 00:33:04;;;;;;;27.95;13.45;;;;;;;;;;5017764;28;20029;-67
2021/12/22 00:35:38;;;;;;;25.70;12.93;;;;;;;;;;5018848;28;20054;-70
2021/12/22 00:38:04;;;;;;;25.52;13.48;;;;;;;;;;5016447;28;20472;-70
2021/12/22 00:40:31;;;;;;;23.20;12.30;;;;;;;;;;5027653;28;20042;-70
2021/12/22 00:42:57;;;;;;;27.10;14.60;;;;;;;;;;5017532;28;20126;-70
2021/12/22 00:45:25;;;;;;;26.15;13.68;;;;;;;;;;5021631;28;20444;-71
2021/12/22 00:47:51;;;;;;;25.75;14.13;;;;;;;;;;5025239;28;20018;-68
2021/12/22 00:50:17;;;;;;;23.98;14.27;;;;;;;;;;5014393;28;20088;-70
2021/12/22 00:52:43;;;;;;;29.80;16.15;;;;;;;;;;5026519;28;20061;-68
2021/12/22 00:55:09;;;;;;;30.40;15.05;;;;;;;;;;5019361;28;20436;-71
2021/12/22 00:57:38;;;;;;;26.05;14.73;;;;;;;;;;5019374;28;20030;-71
2021/12/22 01:00:08;;;;;;;28.63;15.35;;;;;;;;;;5026645;28;20510;-70
2021/12/22 01:02:34;;;;;;;31.08;15.48;;;;;;;;;;5014388;28;20518;-68
2021/12/22 01:05:00;;;;;;;26.88;15.50;;;;;;;;;;5023126;28;20387;-70
2021/12/22 01:07:26;;;;;;;26.67;14.77;;;;;;;;;;5020266;28;20021;-70
2021/12/22 01:09:52;;;;;;;30.20;15.70;;;;;;;;;;5016917;28;20026;-70
2021/12/22 01:12:18;;;;;;;30.30;16.15;;;;;;;;;;5018173;28;20053;-69
2021/12/22 01:14:44;;;;;;;34.80;16.75;;;;;;;;;;5023929;28;20030;-69
2021/12/22 01:17:13;;;;;;;29.80;16.48;;;;;;;;;;5021908;28;20029;-69
2021/12/22 01:22:23;;;;;;;30.35;17.02;;;;;;;;;;5030950;28;20026;-70
2021/12/22 01:24:59;;;;;;;26.88;15.75;;;;;;;;;;5004882;28;20475;-71
2021/12/22 01:27:26;;;;;;;29.13;16.45;;;;;;;;;;5024249;28;20018;-68
2021/12/22 01:29:53;;;;;;;27.85;16.50;;;;;;;;;;5026867;28;20056;-68
2021/12/22 01:32:19;;;;;;;27.48;14.95;;;;;;;;;;5017900;28;20436;-68
2021/12/22 01:34:45;;;;;;;27.33;15.25;;;;;;;;;;5028652;28;20100;-69
2021/12/22 01:37:11;;;;;;;27.02;17.40;;;;;;;;;;5022909;28;20022;-69
2021/12/22 01:39:37;;;;;;;31.23;17.50;;;;;;;;;;5022107;28;20505;-69
2021/12/22 01:42:03;;;;;;;28.55;16.48;;;;;;;;;;5028364;28;20380;-69
2021/12/22 01:44:45;;;;;;;31.17;17.45;;;;;;;;;;5017308;28;20104;-70
2021/12/22 01:49:56;;;;;;;33.88;16.67;;;;;;;;;;5028523;28;20074;-70
2021/12/22 01:52:22;;;;;;;31.17;17.05;;;;;;;;;;5017305;28;20033;-70
2021/12/22 01:54:51;;;;;;;30.95;16.92;;;;;;;;;;5027666;28;20060;-69
2021/12/22 01:57:18;;;;;;;39.60;16.15;;;;;;;;;;5023224;28;20108;-70
2021/12/22 01:59:47;;;;;;;33.05;16.52;;;;;;;;;;5021301;28;20108;-70
2021/12/22 02:02:14;;;;;;;29.02;16.48;;;;;;;;;;5029035;28;20022;-70
2021/12/22 02:04:41;;;;;;;29.23;16.98;;;;;;;;;;5017212;28;20021;-70
2021/12/22 02:07:08;;;;;;;29.02;16.55;;;;;;;;;;5025490;28;20033;-70
2021/12/22 02:12:00;;;;;;;29.10;16.00;;;;;;;;;;5018595;28;20041;-70
2021/12/22 02:14:26;;;;;;;29.70;15.45;;;;;;;;;;5029155;28;20029;-70
2021/12/22 02:16:52;;;;;;;29.23;16.23;;;;;;;;;;5019134;28;20029;-70
2021/12/22 02:19:18;;;;;;;26.38;15.35;;;;;;;;;;5023904;28;20088;-70
2021/12/22 02:21:46;;;;;;;30.73;15.13;;;;;;;;;;5026239;28;20021;-70
2021/12/22 02:24:13;;;;;;;29.65;14.52;;;;;;;;;;5013537;28;20534;-69
2021/12/22 02:26:45;;;;;;;26.58;14.73;;;;;;;;;;5028868;28;20014;-70
2021/12/22 02:29:23;;;;;;;28.70;15.50;;;;;;;;;;5019986;28;20103;-70
2021/12/22 02:32:04;;;;;;;29.40;15.68;;;;;;;;;;5018322;28;20025;-70
2021/12/22 02:34:39;;;;;;;19.00;11.18;;;;;;;;;;5027772;28;20117;-69
2021/12/22 02:37:11;;;;;;;31.30;16.08;;;;;;;;;;5020408;28;20493;-70
2021/12/22 02:39:37;;;;;;;27.60;14.10;;;;;;;;;;5019484;28;20430;-69
2021/12/22 02:42:09;;;;;;;28.33;14.13;;;;;;;;;;5028624;28;20025;-69
2021/12/22 02:44:35;;;;;;;27.77;15.25;;;;;;;;;;5015691;28;20471;-69
2021/12/22 02:47:14;;;;;;;28.25;15.70;;;;;;;;;;5024349;28;20080;-69
2021/12/22 02:49:40;;;;;;;29.90;15.38;;;;;;;;;;5025204;28;20037;-69
2021/12/22 02:52:06;;;;;;;27.45;15.23;;;;;;;;;;5005709;28;20044;-69
2021/12/22 02:54:40;;;;;;;29.48;13.70;;;;;;;;;;5028029;28;20018;-69
2021/12/22 02:57:20;;;;;;;26.42;14.50;;;;;;;;;;5020423;28;20447;-69
2021/12/22 03:00:06;;;;;;;24.67;12.40;;;;;;;;;;5018170;28;20120;-69
2021/12/22 03:02:41;;;;;;;26.50;14.13;;;;;;;;;;5027627;28;20056;-69
2021/12/22 03:05:08;;;;;;;25.42;13.52;;;;;;;;;;5020149;28;20121;-69
2021/12/22 03:07:34;;;;;;;22.77;13.10;;;;;;;;;;5020928;28;20026;-69
2021/12/22 03:10:01;;;;;;;27.27;13.57;;;;;;;;;;5026613;28;20067;-69
2021/12/22 03:12:30;;;;;;;24.35;13.98;;;;;;;;;;5015997;28;20059;-69
2021/12/22 03:14:56;;;;;;;27.02;13.80;;;;;;;;;;5025293;28;20030;-69
2021/12/22 03:17:22;;;;;;;18.52;11.80;;;;;;;;;;5022349;28;20025;-69
2021/12/22 03:19:48;;;;;;;25.35;12.98;;;;;;;;;;5017509;28;20026;-69
2021/12/22 03:22:18;;;;;;;22.20;12.52;;;;;;;;;;5028576;28;20022;-69
2021/12/22 03:24:47;;;;;;;27.67;13.77;;;;;;;;;;5016686;28;20025;-69
2021/12/22 03:27:13;;;;;;;23.35;12.27;;;;;;;;;;5023747;28;20030;-68
2021/12/22 03:29:39;;;;;;;25.20;14.13;;;;;;;;;;5024418;28;20030;-69
2021/12/22 03:32:06;;;;;;;26.17;14.20;;;;;;;;;;5016306;28;20028;-69
2021/12/22 03:34:32;;;;;;;24.83;13.27;;;;;;;;;;5027735;28;20033;-69
2021/12/22 03:36:58;;;;;;;22.02;13.00;;;;;;;;;;5018540;28;20108;-68
2021/12/22 03:39:24;;;;;;;24.23;13.98;;;;;;;;;;5021150;28;20403;-69
2021/12/22 03:41:50;;;;;;;25.02;12.88;;;;;;;;;;5025767;28;20029;-69
2021/12/22 03:44:16;;;;;;;24.02;13.45;;;;;;;;;;5013376;28;20467;-69
2021/12/22 03:46:43;;;;;;;25.17;13.32;;;;;;;;;;5027342;28;20030;-69
2021/12/22 03:49:09;;;;;;;26.88;14.45;;;;;;;;;;5018583;28;20029;-69
2021/12/22 03:51:36;;;;;;;25.33;12.52;;;;;;;;;;5019057;28;20029;-69
2021/12/22 03:54:03;;;;;;;22.00;12.15;;;;;;;;;;5026738;28;20022;-69
2021/12/22 03:56:28;;;;;;;26.80;13.07;;;;;;;;;;5015248;28;20087;-69
2021/12/22 03:58:54;;;;;;;25.13;13.20;;;;;;;;;;5025458;28;20038;-69
2021/12/22 04:01:20;;;;;;;21.20;11.57;;;;;;;;;;5020665;28;20029;-67
2021/12/22 04:03:53;;;;;;;23.10;11.77;;;;;;;;;;5016783;28;20084;-68
2021/12/22 04:06:19;;;;;;;21.77;11.65;;;;;;;;;;5029234;28;20025;-68
2021/12/22 04:08:45;;;;;;;26.83;11.32;;;;;;;;;;5017384;28;20097;-69
2021/12/22 04:11:11;;;;;;;19.05;10.57;;;;;;;;;;5024048;28;20042;-69
2021/12/22 04:13:36;;;;;;;22.10;11.43;;;;;;;;;;5023643;28;20120;-68
2021/12/22 04:16:02;;;;;;;22.25;11.55;;;;;;;;;;5015382;28;20033;-68
2021/12/22 04:18:28;;;;;;;24.83;12.32;;;;;;;;;;5028360;28;20030;-69
2021/12/22 04:20:55;;;;;;;24.30;11.80;;;;;;;;;;5017759;28;20168;-69
2021/12/22 04:23:20;;;;;;;31.50;13.55;;;;;;;;;;5021657;28;20052;-68
2021/12/22 04:25:47;;;;;;;30.35;13.82;;;;;;;;;;5025459;28;20084;-69
2021/12/22 04:28:14;;;;;;;26.92;12.80;;;;;;;;;;5015959;28;20046;-69
2021/12/22 04:30:42;;;;;;;23.38;12.93;;;;;;;;;;5027869;28;20080;-68
2021/12/22 04:33:08;;;;;;;28.90;14.68;;;;;;;;;;5019191;28;20033;-68
2021/12/22 04:35:35;;;;;;;25.23;13.68;;;;;;;;;;5020065;28;20030;-69
2021/12/22 04:38:01;;;;;;;27.60;12.93;;;;;;;;;;5027671;28;20088;-68
2021/12/22 04:40:27;;;;;;;28.65;14.80;;;;;;;;;;5037110;22;20042;-75
2021/12/22 04:42:53;;;;;;;34.85;14.88;;;;;;;;;;5011078;28;20069;-75
2021/12/22 04:45:20;;;;;;;26.73;14.30;;;;;;;;;;5020541;28;20088;-75
2021/12/22 04:47:47;;;;;;;30.02;14.13;;;;;;;;;;5010372;28;20406;-75
2021/12/22 04:50:16;;;;;;;29.98;14.27;;;;;;;;;;5013164;28;20038;-75
2021/12/22 04:52:51;;;;;;;29.20;14.20;;;;;;;;;;5015356;28;20069;-74
2021/12/22 04:55:17;;;;;;;30.40;15.40;;;;;;;;;;5030681;28;20034;-75
2021/12/22 04:57:43;;;;;;;34.05;15.07;;;;;;;;;;5015924;28;20030;-76
2021/12/22 05:00:10;;;;;;;29.00;14.80;;;;;;;;;;5015549;28;20040;-75
2021/12/22 05:02:37;;;;;;;30.70;15.18;;;;;;;;;;4997670;28;20352;-76
2021/12/22 05:05:03;;;;;;;31.50;16.17;;;;;;;;;;5016907;28;20088;-74
2021/12/22 05:07:29;;;;;;;31.90;16.02;;;;;;;;;;5023353;28;20076;-74
2021/12/22 05:09:55;;;;;;;29.20;16.00;;;;;;;;;;5021441;28;20535;-74
2021/12/22 05:12:22;;;;;;;32.88;14.77;;;;;;;;;;5016608;28;20073;-74
2021/12/22 05:14:50;;;;;;;44.63;15.35;;;;;;;;;;5014258;28;20022;-74
2021/12/22 05:17:37;;;;;;;35.92;16.77;;;;;;;;;;5015289;28;20061;-74
2021/12/22 05:20:03;;;;;;;36.13;15.73;;;;;;;;;;5014573;28;20124;-74
2021/12/22 05:22:29;;;;;;;35.35;17.02;;;;;;;;;;5014674;28;20084;-75
2021/12/22 05:24:57;;;;;;;33.92;16.17;;;;;;;;;;5029029;28;20029;-72
2021/12/22 05:27:23;;;;;;;31.02;15.30;;;;;;;;;;5014801;28;20029;-74
2021/12/22 05:29:49;;;;;;;35.85;16.45;;;;;;;;;;5014802;28;20033;-75
2021/12/22 05:32:15;;;;;;;34.08;16.73;;;;;;;;;;5030029;28;20041;-74
2021/12/22 05:34:42;;;;;;;38.60;17.08;;;;;;;;;;5013827;28;20030;-74
2021/12/22 05:37:07;;;;;;;34.63;16.98;;;;;;;;;;5029629;28;20076;-74
2021/12/22 05:39:33;;;;;;;30.92;15.75;;;;;;;;;;5029580;28;20093;-73
2021/12/22 05:42:01;;;;;;;30.48;16.17;;;;;;;;;;5014724;28;20033;-74
2021/12/22 05:44:27;;;;;;;40.08;16.08;;;;;;;;;;5013895;28;20120;-75
2021/12/22 05:46:53;;;;;;;34.20;17.20;;;;;;;;;;5014252;28;20026;-74
2021/12/22 05:49:19;;;;;;;30.75;15.50;;;;;;;;;;5014044;28;20423;-73
2021/12/22 05:51:45;;;;;;;37.42;15.88;;;;;;;;;;5014310;28;20107;-74
2021/12/22 05:54:11;;;;;;;37.45;17.00;;;;;;;;;;5013992;28;20080;-73
2021/12/22 05:56:38;;;;;;;32.90;16.25;;;;;;;;;;5014727;28;20029;-74
2021/12/22 05:59:04;;;;;;;33.35;16.70;;;;;;;;;;5014236;28;20038;-72
2021/12/22 06:01:30;;;;;;;35.10;16.48;;;;;;;;;;5011870;28;20460;-74
2021/12/22 06:03:59;;;;;;;39.25;19.05;;;;;;;;;;5013649;28;20090;-74
2021/12/22 06:06:26;;;;;;;40.83;16.90;;;;;;;;;;5029824;28;20025;-75
2021/12/22 06:08:52;;;;;;;35.08;18.10;;;;;;;;;;5015283;28;20118;-75
2021/12/22 06:11:18;;;;;;;43.58;18.73;;;;;;;;;;5031110;28;20120;-75
2021/12/22 06:13:44;;;;;;;45.75;19.35;;;;;;;;;;5001802;28;20030;-74
2021/12/22 06:16:10;;;;;;;39.28;17.60;;;;;;;;;;5010972;28;20111;-73
2021/12/22 06:18:42;;;;;;;35.53;17.20;;;;;;;;;;4997263;28;20029;-74
2021/12/22 06:21:08;;;;;;;37.35;18.15;;;;;;;;;;5013558;28;20500;-74
2021/12/22 06:23:34;;;;;;;42.70;17.77;;;;;;;;;;5028103;28;20129;-73
2021/12/22 06:26:00;;;;;;;35.90;16.65;;;;;;;;;;5014204;28;20057;-74
2021/12/22 06:28:26;;;;;;;37.95;16.95;;;;;;;;;;5013843;28;20041;-75
2021/12/22 06:30:51;;;;;;;31.00;16.38;;;;;;;;;;5013396;28;20030;-75
2021/12/22 06:33:17;;;;;;;32.83;16.52;;;;;;;;;;5012921;28;20495;-75
2021/12/22 06:35:46;;;;;;;30.67;15.80;;;;;;;;;;5013489;28;20049;-75
2021/12/22 06:38:13;;;;;;;32.80;17.85;;;;;;;;;;5012059;28;20081;-75
2021/12/22 06:40:39;;;;;;;39.65;18.70;;;;;;;;;;5013082;28;20054;-74
2021/12/22 06:43:05;;;;;;;35.10;17.33;;;;;;;;;;5012472;28;20041;-74
2021/12/22 06:45:31;;;;;;;39.50;17.40;;;;;;;;;;5013335;28;20026;-74
2021/12/22 06:47:57;;;;;;;42.70;18.75;;;;;;;;;;5028666;28;20071;-74
2021/12/22 06:50:23;;;;;;;36.03;17.70;;;;;;;;;;5013144;28;20038;-74
2021/12/22 06:52:49;;;;;;;32.42;17.70;;;;;;;;;;5027792;28;20026;-75
2021/12/22 06:55:15;;;;;;;33.33;17.52;;;;;;;;;;5013117;28;20136;-75
2021/12/22 06:57:41;;;;;;;34.00;17.85;;;;;;;;;;5013029;28;20072;-74
2021/12/22 07:00:08;;;;;;;38.30;17.85;;;;;;;;;;5028597;28;20030;-74
2021/12/22 07:02:37;;;;;;;33.50;16.85;;;;;;;;;;5013437;28;20026;-75
2021/12/22 07:05:05;;;;;;;35.28;17.35;;;;;;;;;;5013051;28;20081;-75
2021/12/22 07:07:31;;;;;;;35.08;18.25;;;;;;;;;;5012804;28;20026;-76
2021/12/22 07:09:56;;;;;;;37.30;18.52;;;;;;;;;;5012929;28;20466;-74
2021/12/22 07:12:22;;;;;;;33.30;17.98;;;;;;;;;;5015180;28;20057;-75
2021/12/22 07:14:48;;;;;;;33.50;18.02;;;;;;;;;;5015055;28;20427;-75
2021/12/22 07:17:14;;;;;;;36.30;17.23;;;;;;;;;;5031332;28;20068;-73
2021/12/22 07:19:40;;;;;;;34.40;17.48;;;;;;;;;;5017051;28;20038;-75
2021/12/22 07:22:06;;;;;;;33.17;17.77;;;;;;;;;;5014688;28;20030;-75
2021/12/22 07:24:33;;;;;;;33.28;17.70;;;;;;;;;;5013172;28;20064;-74
2021/12/22 07:26:59;;;;;;;38.78;17.35;;;;;;;;;;5013160;28;20030;-75
2021/12/22 07:29:25;;;;;;;36.92;17.48;;;;;;;;;;5030035;28;20431;-73
2021/12/22 07:31:51;;;;;;;34.67;17.90;;;;;;;;;;5013328;28;20041;-74
2021/12/22 07:34:34;;;;;;;35.17;19.08;;;;;;;;;;5013321;28;20030;-74
2021/12/22 07:37:09;;;;;;;43.38;18.50;;;;;;;;;;5014422;28;20076;-75
2021/12/22 07:39:35;;;;;;;38.72;18.38;;;;;;;;;;5015010;28;20065;-76
2021/12/22 07:42:02;;;;;;;35.58;17.83;;;;;;;;;;5014101;28;20443;-75
2021/12/22 07:44:28;;;;;;;37.70;17.92;;;;;;;;;;5013446;28;20492;-74
2021/12/22 07:46:54;;;;;;;31.85;16.90;;;;;;;;;;5028651;28;20060;-75
2021/12/22 07:49:20;;;;;;;29.90;17.30;;;;;;;;;;5013630;28;20036;-75
2021/12/22 07:51:46;;;;;;;35.53;17.45;;;;;;;;;;5028203;28;20034;-73
2021/12/22 07:54:12;;;;;;;30.27;15.73;;;;;;;;;;5011899;28;20496;-75
2021/12/22 07:56:38;;;;;;;26.20;15.20;;;;;;;;;;5027340;28;20033;-74
2021/12/22 07:59:04;;;;;;;27.33;13.98;;;;;;;;;;5011929;28;20033;-75
2021/12/22 08:01:32;;;;;;;31.25;15.50;;;;;;;;;;5010403;28;20449;-74
2021/12/22 08:03:58;;;;;;;31.63;14.98;;;;;;;;;;5011662;28;20022;-74
2021/12/22 08:06:24;;;;;;;28.73;13.70;;;;;;;;;;5026986;28;20075;-75
2021/12/22 08:08:50;;;;;;;27.08;12.30;;;;;;;;;;5011904;28;20115;-76
2021/12/22 08:11:16;;;;;;;26.70;14.65;;;;;;;;;;5011902;28;20499;-76
2021/12/22 08:13:42;;;;;;;24.35;13.13;;;;;;;;;;4998567;28;20030;-76
2021/12/22 08:16:08;;;;;;;22.33;12.63;;;;;;;;;;5008277;28;20040;-74
2021/12/22 08:18:34;;;;;;;23.88;13.73;;;;;;;;;;5011755;28;20377;-73
2021/12/22 08:21:00;;;;;;;20.25;11.68;;;;;;;;;;5011554;28;20030;-76
2021/12/22 08:23:26;;;;;;;23.15;11.98;;;;;;;;;;5026043;28;20036;-74
2021/12/22 08:25:52;;;;;;;20.98;11.52;;;;;;;;;;5014522;28;20048;-76
2021/12/22 08:28:18;;;;;;;20.38;11.43;;;;;;;;;;5014992;28;20026;-76
2021/12/22 08:30:44;;;;;;;19.10;11.65;;;;;;;;;;5015223;28;20029;-74
2021/12/22 08:33:20;;;;;;;21.45;11.60;;;;;;;;;;5014590;28;20030;-75
2021/12/22 08:41:16;;;;;;;22.65;12.80;;;;;;;;;;5014346;28;20052;-75
2021/12/22 08:43:42;;;;;;;24.27;13.30;;;;;;;;;;5014519;28;20112;-75
2021/12/22 08:46:08;;;;;;;23.27;13.48;;;;;;;;;;5016222;28;20030;-75
2021/12/22 08:48:34;;;;;;;25.45;13.10;;;;;;;;;;5015653;28;20049;-72
2021/12/22 08:50:59;;;;;;;21.60;12.32;;;;;;;;;;5015389;28;20026;-75
2021/12/22 08:53:25;;;;;;;19.85;11.70;;;;;;;;;;5015032;28;20033;-74
2021/12/22 08:55:51;;;;;;;22.60;13.10;;;;;;;;;;5015477;28;20083;-75
2021/12/22 08:58:17;;;;;;;31.77;13.30;;;;;;;;;;5015196;28;20476;-76
2021/12/22 09:00:43;;;;;;;28.73;14.48;;;;;;;;;;5015232;28;20511;-75
2021/12/22 09:03:09;;;;;;;24.25;14.20;;;;;;;;;;5013736;28;20091;-74
2021/12/22 09:05:35;;;;;;;26.00;14.10;;;;;;;;;;5013891;28;20591;-75
2021/12/22 09:08:01;;;;;;;24.98;14.82;;;;;;;;;;5012295;28;20109;-76
2021/12/22 09:10:27;;;;;;;35.55;15.07;;;;;;;;;;5012173;28;20035;-79
2021/12/22 09:12:53;;;;;;;26.73;14.02;;;;;;;;;;5012830;28;20040;-74
2021/12/22 09:15:19;;;;;;;24.00;14.25;;;;;;;;;;5013845;28;20025;-74
2021/12/22 09:17:45;;;;;;;37.00;13.63;;;;;;;;;;5015044;28;20030;-74
2021/12/22 09:20:12;;;;;;;22.05;13.25;;;;;;;;;;5014508;28;20029;-75
2021/12/22 09:22:39;;;;;;;20.60;12.25;;;;;;;;;;5029527;28;20022;-72
2021/12/22 09:25:05;;;;;;;23.83;12.95;;;;;;;;;;5014407;28;20034;-75
2021/12/22 09:27:31;;;;;;;21.67;12.43;;;;;;;;;;5019964;28;20510;-73
2021/12/22 09:29:57;;;;;;;21.55;12.48;;;;;;;;;;5007673;28;20514;-74
2021/12/22 09:32:23;;;;;;;20.15;12.45;;;;;;;;;;5014530;28;20037;-77
2021/12/22 09:34:52;;;;;;;24.15;12.55;;;;;;;;;;5014249;28;20025;-73
2021/12/22 09:37:24;;;;;;;22.83;11.43;;;;;;;;;;5013858;28;20038;-75
2021/12/22 09:42:53;;;;;;;23.13;11.90;;;;;;;;;;5012312;28;20083;-77
2021/12/22 09:45:22;;;;;;;;;;;;;;;;;;5012384;28;20034;-74
2021/12/22 09:53:19;;;;;;;21.80;10.80;;;;;;;;;;5014048;28;20061;-76
2021/12/22 09:55:46;;;;;;;19.10;10.38;;;;;;;;;;5015026;28;20068;-78
2021/12/22 09:58:12;;;;;;;17.13;10.65;;;;;;;;;;5014589;28;20076;-74
2021/12/22 10:00:39;;;;;;;22.05;11.35;;;;;;;;;;4998018;28;20034;-74
2021/12/22 10:03:06;;;;;;;18.48;9.80;;;;;;;;;;5013986;28;20089;-71
2021/12/22 10:05:33;;;;;;;19.45;10.52;;;;;;;;;;5014359;28;20026;-75
2021/12/22 10:08:05;;;;;;;24.90;10.70;;;;;;;;;;5014553;28;20025;-73
2021/12/22 10:10:31;;;;;;;17.60;10.30;;;;;;;;;;5013960;28;20546;-75
2021/12/22 10:13:04;;;;;;;18.50;10.70;;;;;;;;;;5013324;28;20038;-73
2021/12/22 10:15:31;;;;;;;20.58;11.07;;;;;;;;;;5013843;28;20029;-74
2021/12/22 10:18:06;;;;;;;19.45;10.73;;;;;;;;;;5013734;28;20032;-76
2021/12/22 10:20:32;;;;;;;21.35;11.20;;;;;;;;;;5012563;28;20499;-72
2021/12/22 10:22:58;;;;;;;23.65;10.32;;;;;;;;;;5013051;28;20031;-73
2021/12/22 10:25:26;;;;;;;17.65;10.25;;;;;;;;;;5028934;28;20033;-75
2021/12/22 10:27:58;;;;;;;19.98;10.43;;;;;;;;;;5028593;28;20450;-72
2021/12/22 10:30:29;;;;;;;17.08;9.60;;;;;;;;;;5012944;28;20404;-74
2021/12/22 10:33:13;;;;;;;23.77;10.88;;;;;;;;;;5012765;28;20097;-73
2021/12/22 10:35:40;;;;;;;14.88;9.43;;;;;;;;;;5013557;28;20403;-74
2021/12/22 10:38:07;;;;;;;16.92;9.55;;;;;;;;;;5028116;28;20496;-73
2021/12/22 10:40:35;;;;;;;12.95;8.55;;;;;;;;;;5037627;22;20049;-69
2021/12/22 10:43:02;;;;;;;13.68;9.05;;;;;;;;;;5032532;28;20060;-70
2021/12/22 10:45:29;;;;;;;18.25;9.30;;;;;;;;;;5033045;28;20018;-68
2021/12/22 10:50:42;;;;;;;14.40;8.77;;;;;;;;;;5009454;28;20605;-69
2021/12/22 10:53:09;;;;;;;15.82;9.38;;;;;;;;;;5011419;28;20479;-69
2021/12/22 10:55:39;;;;;;;16.20;9.43;;;;;;;;;;5011109;28;20028;-68
2021/12/22 10:58:19;;;;;;;16.87;10.63;;;;;;;;;;5009526;28;20469;-68
2021/12/22 11:00:45;;;;;;;20.48;10.13;;;;;;;;;;5012854;28;20285;-68
2021/12/22 11:03:15;;;;;;;14.73;8.88;;;;;;;;;;5011020;28;20034;-68
2021/12/22 11:05:45;;;;;;;17.13;9.07;;;;;;;;;;5013122;28;20018;-68
2021/12/22 11:08:22;;;;;;;15.65;9.20;;;;;;;;;;5012834;28;20495;-67
2021/12/22 11:10:49;;;;;;;16.92;9.32;;;;;;;;;;5011783;28;20030;-69
2021/12/22 11:13:19;;;;;;;16.48;9.68;;;;;;;;;;5011773;28;20022;-68
2021/12/22 11:16:02;;;;;;;14.18;9.20;;;;;;;;;;5012051;28;20318;-69
2021/12/22 11:18:33;;;;;;;15.68;9.25;;;;;;;;;;5010745;28;20025;-70
2021/12/22 11:21:10;;;;;;;25.75;10.18;;;;;;;;;;5010731;28;20022;-69
2021/12/22 11:23:36;;;;;;;26.35;11.45;;;;;;;;;;4991842;28;20130;-69
2021/12/22 11:26:03;;;;;;;17.77;9.90;;;;;;;;;;5012561;28;20029;-69
2021/12/22 11:28:30;;;;;;;21.27;10.80;;;;;;;;;;5012702;28;20395;-69
2021/12/22 11:30:57;;;;;;;15.77;9.15;;;;;;;;;;5012734;28;20430;-69
2021/12/22 11:33:24;;;;;;;15.27;9.10;;;;;;;;;;5011162;28;20030;-69
2021/12/22 11:35:50;;;;;;;15.10;8.95;;;;;;;;;;5009838;28;20037;-69
2021/12/22 11:38:17;;;;;;;19.63;9.60;;;;;;;;;;5011165;28;20026;-68
2021/12/22 11:40:52;;;;;;;18.23;10.10;;;;;;;;;;5011081;28;20053;-68
2021/12/22 11:43:19;;;;;;;17.08;9.50;;;;;;;;;;5010092;28;20018;-67
2021/12/22 11:45:45;;;;;;;17.88;11.00;;;;;;;;;;5011511;28;20014;-69
2021/12/22 11:48:11;;;;;;;18.13;10.52;;;;;;;;;;5009928;28;20014;-69
2021/12/22 11:50:37;;;;;;;16.98;9.95;;;;;;;;;;4995505;28;20073;-68
2021/12/22 11:53:11;;;;;;;19.10;11.10;;;;;;;;;;4992140;28;20049;-69
2021/12/22 11:55:42;;;;;;;16.10;9.75;;;;;;;;;;5001794;28;20026;-70
2021/12/22 11:58:12;;;;;;;13.07;7.80;;;;;;;;;;5013054;28;20076;-69
2021/12/22 12:00:38;;;;;;;21.10;10.55;;;;;;;;;;5012972;28;20034;-69
2021/12/22 12:03:23;;;;;;;16.20;9.40;;;;;;;;;;5013099;28;20109;-68
2021/12/22 12:06:01;;;;;;;18.42;10.88;;;;;;;;;;5013215;28;20018;-70
2021/12/22 12:08:32;;;;;;;16.63;10.13;;;;;;;;;;5001690;28;20026;-69
2021/12/22 12:10:59;;;;;;;20.48;10.32;;;;;;;;;;5004583;28;20079;-69
2021/12/22 12:13:35;;;;;;;15.45;8.75;;;;;;;;;;4997750;28;20165;-68
2021/12/22 12:22:08;;;;;;;16.67;8.88;;;;;;;;;;4993016;28;20121;-69
2021/12/22 12:24:59;;;;;;;24.65;9.82;;;;;;;;;;5009747;28;20030;-69
2021/12/22 12:27:40;;;;;;;15.48;8.27;;;;;;;;;;4997579;28;20084;-69
2021/12/22 12:30:09;;;;;;;15.48;9.80;;;;;;;;;;4996571;28;20026;-68
2021/12/22 12:32:56;;;;;;;14.55;8.63;;;;;;;;;;5010835;28;20416;-69
2021/12/22 12:35:27;;;;;;;15.98;10.98;;;;;;;;;;4989399;28;20030;-68
2021/12/22 12:38:16;;;;;;;18.38;10.45;;;;;;;;;;5012119;28;20041;-69
2021/12/22 12:41:00;;;;;;;15.93;9.52;;;;;;;;;;5012208;28;20038;-68
2021/12/22 12:43:42;;;;;;;17.50;10.02;;;;;;;;;;5004745;28;20053;-68
2021/12/22 12:46:20;;;;;;;17.83;10.32;;;;;;;;;;4994548;28;20484;-68
2021/12/22 12:48:46;;;;;;;15.63;9.73;;;;;;;;;;5011497;28;20061;-68
2021/12/22 12:51:20;;;;;;;21.65;10.68;;;;;;;;;;5011576;28;20058;-68
2021/12/22 12:53:47;;;;;;;20.40;8.93;;;;;;;;;;5010843;28;20021;-68
2021/12/22 12:56:17;;;;;;;20.35;10.10;;;;;;;;;;5011597;28;20113;-68
2021/12/22 12:58:56;;;;;;;17.52;9.63;;;;;;;;;;5009777;28;20050;-67
2021/12/22 13:01:40;;;;;;;22.08;11.05;;;;;;;;;;4991564;28;20488;-68
2021/12/22 13:04:20;;;;;;;15.73;10.00;;;;;;;;;;4990942;28;20026;-68
2021/12/22 13:06:46;;;;;;;15.68;9.18;;;;;;;;;;4991378;28;20018;-68
2021/12/22 13:09:24;;;;;;;16.55;9.43;;;;;;;;;;4991544;28;20019;-69
2021/12/22 13:11:54;;;;;;;19.20;10.52;;;;;;;;;;4992423;28;20034;-68
2021/12/22 13:17:12;;;;;;;17.08;9.90;;;;;;;;;;5007734;28;20268;-67
2021/12/22 13:19:47;;;;;;;16.60;9.48;;;;;;;;;;5014969;28;20034;-68
2021/12/22 13:22:20;;;;;;;22.58;11.88;;;;;;;;;;5014405;28;20030;-67
2021/12/22 13:24:46;;;;;;;15.05;9.50;;;;;;;;;;5013064;28;20045;-68
2021/12/22 13:27:12;;;;;;;16.73;9.82;;;;;;;;;;5012437;28;20018;-69
2021/12/22 13:29:39;;;;;;;15.88;9.45;;;;;;;;;;5013901;28;20080;-68
2021/12/22 13:32:09;;;;;;;16.48;9.18;;;;;;;;;;5013414;28;20192;-69
2021/12/22 13:34:42;;;;;;;10.90;6.07;;;;;;;;;;5012913;28;20025;-68
2021/12/22 13:37:08;;;;;;;14.20;8.95;;;;;;;;;;5012366;28;20022;-69
2021/12/22 13:39:45;;;;;;;13.98;7.65;;;;;;;;;;5012851;28;20032;-68
2021/12/22 13:42:11;;;;;;;14.32;7.65;;;;;;;;;;5012666;28;20466;-69
2021/12/22 13:44:38;;;;;;;13.98;7.57;;;;;;;;;;5012804;28;20038;-68
2021/12/22 13:47:04;;;;;;;13.20;7.93;;;;;;;;;;5013785;28;20468;-67
2021/12/22 13:49:31;;;;;;;15.43;8.40;;;;;;;;;;5014220;28;20094;-68
2021/12/22 13:51:57;;;;;;;14.00;8.35;;;;;;;;;;5013923;28;20030;-68
2021/12/22 13:54:28;;;;;;;13.15;8.40;;;;;;;;;;5011453;28;20028;-69
2021/12/22 13:57:00;;;;;;;15.55;9.40;;;;;;;;;;5012116;28;20041;-68
2021/12/22 13:59:29;;;;;;;15.05;8.40;;;;;;;;;;5011990;28;20105;-68
2021/12/22 14:01:56;;;;;;;12.77;7.93;;;;;;;;;;5012150;28;20033;-68
2021/12/22 14:04:23;;;;;;;20.67;9.25;;;;;;;;;;5011529;28;20101;-68
2021/12/22 14:06:50;;;;;;;15.65;8.55;;;;;;;;;;5010751;28;20084;-68
2021/12/22 14:09:23;;;;;;;15.32;9.10;;;;;;;;;;5012027;28;20034;-68
2021/12/22 14:11:55;;;;;;;16.40;8.82;;;;;;;;;;5013728;28;20109;-68
2021/12/22 14:14:31;;;;;;;16.73;9.57;;;;;;;;;;5012907;28;20567;-68
2021/12/22 14:17:07;;;;;;;20.13;8.98;;;;;;;;;;5012192;28;20026;-68
2021/12/22 14:19:34;;;;;;;18.08;9.80;;;;;;;;;;5013787;28;20030;-68
2021/12/22 14:22:03;;;;;;;20.05;10.55;;;;;;;;;;5011128;28;20030;-69
2021/12/22 14:24:34;;;;;;;19.00;10.48;;;;;;;;;;5012227;28;20148;-68
2021/12/22 14:27:01;;;;;;;19.35;10.30;;;;;;;;;;5010258;28;20076;-69
2021/12/22 14:29:28;;;;;;;21.52;10.57;;;;;;;;;;5011307;28;20484;-68
2021/12/22 14:32:04;;;;;;;16.83;10.38;;;;;;;;;;5012875;28;20092;-68
2021/12/22 14:34:31;;;;;;;20.15;11.05;;;;;;;;;;5011993;28;20022;-69
2021/12/22 14:36:58;;;;;;;20.95;10.15;;;;;;;;;;5011702;28;20080;-68
2021/12/22 14:39:38;;;;;;;20.08;10.18;;;;;;;;;;5012654;28;20025;-69
2021/12/22 14:42:20;;;;;;;18.02;10.75;;;;;;;;;;5011705;28;20026;-69
2021/12/22 14:44:46;;;;;;;18.42;10.23;;;;;;;;;;5011067;28;20029;-69
2021/12/22 14:47:22;;;;;;;21.30;11.68;;;;;;;;;;5013080;28;20022;-69
2021/12/22 14:49:53;;;;;;;19.40;10.88;;;;;;;;;;5012990;28;20026;-69
2021/12/22 14:52:19;;;;;;;19.02;10.80;;;;;;;;;;5012996;28;20028;-68
2021/12/22 14:54:46;;;;;;;24.45;11.93;;;;;;;;;;5012339;28;20047;-68
2021/12/22 14:57:22;;;;;;;21.23;11.18;;;;;;;;;;5011401;28;20367;-68
2021/12/22 14:59:48;;;;;;;22.20;12.50;;;;;;;;;;5012562;28;20084;-68